createdAt,value
2022-09-28T00:01:09.205Z,9.65
2022-09-28T00:03:37.376Z,9.67
2022-09-28T00:06:08.609Z,9.65
2022-09-28T00:08:37.076Z,9.64
2022-09-28T00:11:05.839Z,9.62
2022-09-28T00:13:34.095Z,9.62
2022-09-28T00:16:03.868Z,9.59
2022-09-28T00:18:32.232Z,9.62
2022-09-28T00:21:04.850Z,9.64
2022-09-28T00:23:34.370Z,9.59
2022-09-28T00:26:05.844Z,9.55
2022-09-28T00:28:33.596Z,9.44
2022-09-28T00:31:01.308Z,9.54
2022-09-28T00:33:28.942Z,9.43
2022-09-28T00:35:57.489Z,9.48
2022-09-28T00:38:28.348Z,9.52
2022-09-28T00:40:57.336Z,9.56
2022-09-28T00:43:25.575Z,9.52
2022-09-28T00:46:00.006Z,9.50
2022-09-28T00:48:31.261Z,9.46
2022-09-28T00:51:01.448Z,9.36
2022-09-28T00:53:34.699Z,9.35
2022-09-28T00:56:09.033Z,9.42
2022-09-28T00:58:40.518Z,9.39
2022-09-28T01:01:08.448Z,9.43
2022-09-28T01:03:36.201Z,9.43
2022-09-28T01:06:05.481Z,9.42
2022-09-28T01:08:34.458Z,9.36
2022-09-28T01:11:03.688Z,9.35
2022-09-28T01:13:33.133Z,9.28
2022-09-28T01:16:10.310Z,9.33
2022-09-28T01:18:46.670Z,9.38
2022-09-28T01:21:19.718Z,9.34
2022-09-28T01:24:10.302Z,9.41
2022-09-28T01:26:49.350Z,9.41
2022-09-28T01:29:29.509Z,9.51
2022-09-28T01:32:02.754Z,9.49
2022-09-28T01:34:38.870Z,9.46
2022-09-28T01:37:10.677Z,9.38
2022-09-28T01:39:42.944Z,9.46
2022-09-28T01:42:17.787Z,9.44
2022-09-28T01:44:48.890Z,9.38
2022-09-28T01:47:22.334Z,9.47
2022-09-28T01:49:55.163Z,9.51
2022-09-28T01:52:27.875Z,9.51
2022-09-28T01:55:01.418Z,9.51
2022-09-28T01:57:35.304Z,9.51
2022-09-28T02:00:08.104Z,9.49
2022-09-28T02:02:40.683Z,9.47
2022-09-28T02:05:13.879Z,9.44
2022-09-28T02:07:45.678Z,9.49
2022-09-28T02:10:16.310Z,9.47
2022-09-28T02:12:49.507Z,9.50
2022-09-28T02:15:21.659Z,9.52
2022-09-28T02:17:50.034Z,9.51
2022-09-28T02:20:18.553Z,9.52
2022-09-28T02:22:50.467Z,9.51
2022-09-28T02:25:25.137Z,9.47
2022-09-28T02:27:59.335Z,9.50
2022-09-28T02:30:27.458Z,9.43
2022-09-28T02:32:58.947Z,9.46
2022-09-28T02:35:26.639Z,9.46
2022-09-28T02:37:55.172Z,9.50
2022-09-28T02:40:26.526Z,9.42
2022-09-28T02:43:03.803Z,9.47
2022-09-28T02:45:40.800Z,9.52
2022-09-28T02:48:24.051Z,9.51
2022-09-28T02:51:12.976Z,9.49
2022-09-28T02:53:58.663Z,9.35
2022-09-28T02:56:48.960Z,9.25
2022-09-28T02:59:33.248Z,9.26
2022-09-28T03:02:11.817Z,9.13
2022-09-28T03:04:48.016Z,9.40
2022-09-28T03:07:23.872Z,9.50
2022-09-28T03:09:59.813Z,9.53
2022-09-28T03:12:29.303Z,9.49
2022-09-28T03:15:14.921Z,9.53
2022-09-28T03:17:42.465Z,9.53
2022-09-28T03:20:12.111Z,9.55
2022-09-28T03:22:39.874Z,9.54
2022-09-28T03:25:08.961Z,9.54
2022-09-28T03:27:36.638Z,9.55
2022-09-28T03:30:05.285Z,9.57
2022-09-28T03:32:34.162Z,9.57
2022-09-28T03:35:01.805Z,9.54
2022-09-28T03:37:29.656Z,9.52
2022-09-28T03:39:57.239Z,9.53
2022-09-28T03:42:24.854Z,9.52
2022-09-28T03:44:52.493Z,9.52
2022-09-28T03:47:20.251Z,9.52
2022-09-28T03:49:49.289Z,9.55
2022-09-28T03:52:16.819Z,9.59
2022-09-28T03:54:48.915Z,9.51
2022-09-28T03:57:16.836Z,9.51
2022-09-28T03:59:44.365Z,9.49
2022-09-28T04:02:12.028Z,9.56
2022-09-28T04:04:39.645Z,9.56
2022-09-28T04:07:08.545Z,9.60
2022-09-28T04:09:36.090Z,9.54
2022-09-28T04:12:04.576Z,9.54
2022-09-28T04:14:32.335Z,9.55
2022-09-28T04:16:59.856Z,9.58
2022-09-28T04:19:27.720Z,9.55
2022-09-28T04:21:55.230Z,9.54
2022-09-28T04:24:24.168Z,9.57
2022-09-28T04:26:51.671Z,9.60
2022-09-28T04:29:18.932Z,9.58
2022-09-28T04:31:49.595Z,9.59
2022-09-28T04:34:19.429Z,9.58
2022-09-28T04:36:47.840Z,9.57
2022-09-28T04:39:17.006Z,9.60
2022-09-28T04:41:48.733Z,9.61
2022-09-28T04:44:16.301Z,9.61
2022-09-28T04:46:43.866Z,9.61
2022-09-28T04:49:11.972Z,9.64
2022-09-28T04:51:39.523Z,9.63
2022-09-28T04:54:07.062Z,9.57
2022-09-28T04:56:34.570Z,9.59
2022-09-28T04:59:03.452Z,9.57
2022-09-28T05:01:31.213Z,9.57
2022-09-28T05:03:58.818Z,9.52
2022-09-28T05:06:28.514Z,9.51
2022-09-28T05:08:57.294Z,9.54
2022-09-28T05:11:24.887Z,9.54
2022-09-28T05:13:52.427Z,9.56
2022-09-28T05:16:21.667Z,9.54
2022-09-28T05:18:49.314Z,9.48
2022-09-28T05:21:19.484Z,9.52
2022-09-28T05:23:48.084Z,9.53
2022-09-28T05:26:15.716Z,9.57
2022-09-28T05:28:44.573Z,9.57
2022-09-28T05:31:12.170Z,9.56
2022-09-28T05:33:41.256Z,9.55
2022-09-28T05:36:10.772Z,9.60
2022-09-28T05:38:38.667Z,9.59
2022-09-28T05:41:06.979Z,9.57
2022-09-28T05:43:34.870Z,9.59
2022-09-28T05:46:02.463Z,9.57
2022-09-28T05:48:30.042Z,9.59
2022-09-28T05:50:59.680Z,9.59
2022-09-28T05:53:27.275Z,9.58
2022-09-28T05:55:58.713Z,9.60
2022-09-28T05:58:26.224Z,9.58
2022-09-28T06:00:55.495Z,9.56
2022-09-28T06:03:23.479Z,9.50
2022-09-28T06:05:51.386Z,9.55
2022-09-28T06:08:20.279Z,9.60
2022-09-28T06:10:47.839Z,9.54
2022-09-28T06:13:15.362Z,9.48
2022-09-28T06:15:43.721Z,9.56
2022-09-28T06:18:14.835Z,9.33
2022-09-28T06:20:42.730Z,9.59
2022-09-28T06:23:10.449Z,9.65
2022-09-28T06:25:39.434Z,9.53
2022-09-28T06:28:10.339Z,9.61
2022-09-28T06:30:39.061Z,9.63
2022-09-28T06:33:08.684Z,9.56
2022-09-28T06:35:36.606Z,9.52
2022-09-28T06:38:04.515Z,9.43
2022-09-28T06:40:33.010Z,9.53
2022-09-28T06:43:03.221Z,9.37
2022-09-28T06:45:31.763Z,9.47
2022-09-28T06:48:00.856Z,9.48
2022-09-28T06:50:32.232Z,9.52
2022-09-28T06:53:00.742Z,9.53
2022-09-28T06:55:29.497Z,9.58
2022-09-28T06:58:02.420Z,9.54
2022-09-28T07:00:32.876Z,9.61
2022-09-28T07:03:01.014Z,9.58
2022-09-28T07:05:29.878Z,9.62
2022-09-28T07:07:58.208Z,9.60
2022-09-28T07:10:28.393Z,9.49
2022-09-28T07:12:57.525Z,9.45
2022-09-28T07:15:27.029Z,9.51
2022-09-28T07:18:02.717Z,9.42
2022-09-28T07:20:33.740Z,9.64
2022-09-28T07:23:17.125Z,9.52
2022-09-28T07:25:48.776Z,9.50
2022-09-28T07:28:17.225Z,9.67
2022-09-28T07:30:46.200Z,9.72
2022-09-28T07:33:15.923Z,9.69
2022-09-28T07:35:52.165Z,9.56
2022-09-28T07:38:19.861Z,9.60
2022-09-28T07:41:05.648Z,9.64
2022-09-28T07:43:33.410Z,9.35
2022-09-28T07:46:02.401Z,9.47
2022-09-28T07:48:37.850Z,9.15
2022-09-28T07:51:05.738Z,8.81
2022-09-28T07:53:33.368Z,8.91
2022-09-28T07:56:08.575Z,8.82
2022-09-28T07:58:37.781Z,8.91
2022-09-28T08:01:08.875Z,9.10
2022-09-28T08:03:36.708Z,8.96
2022-09-28T08:06:06.994Z,9.17
2022-09-28T08:08:35.724Z,9.44
2022-09-28T08:11:04.025Z,9.57
2022-09-28T08:13:31.635Z,9.42
2022-09-28T08:16:02.603Z,9.44
2022-09-28T08:18:31.524Z,9.58
2022-09-28T08:21:16.416Z,9.70
2022-09-28T08:23:44.194Z,9.60
2022-09-28T08:26:15.390Z,9.49
2022-09-28T08:28:45.039Z,9.33
2022-09-28T08:31:12.745Z,9.09
2022-09-28T08:33:42.781Z,9.04
2022-09-28T08:36:11.249Z,9.20
2022-09-28T08:38:38.780Z,9.33
2022-09-28T08:41:16.492Z,9.28
2022-09-28T08:44:04.430Z,9.28
2022-09-28T08:46:36.787Z,9.30
2022-09-28T08:49:25.019Z,9.36
2022-09-28T08:51:59.201Z,9.37
2022-09-28T08:54:34.980Z,9.33
2022-09-28T08:57:06.153Z,9.44
2022-09-28T08:59:46.590Z,9.49
2022-09-28T09:02:20.241Z,9.37
2022-09-28T09:04:51.576Z,9.41
2022-09-28T09:07:32.771Z,9.49
2022-09-28T09:10:10.421Z,9.41
2022-09-28T09:12:45.558Z,9.45
2022-09-28T09:15:39.671Z,9.42
2022-09-28T09:18:20.052Z,9.54
2022-09-28T09:20:54.808Z,9.50
2022-09-28T09:23:36.314Z,9.58
2022-09-28T09:26:13.157Z,9.48
2022-09-28T09:29:03.850Z,9.53
2022-09-28T09:31:45.757Z,9.56
2022-09-28T09:34:29.533Z,9.62
2022-09-28T09:37:13.619Z,9.66
2022-09-28T09:39:55.903Z,9.56
2022-09-28T09:42:38.019Z,9.53
2022-09-28T09:45:26.768Z,9.65
2022-09-28T09:48:01.507Z,9.79
2022-09-28T09:50:34.664Z,9.73
2022-09-28T09:53:15.507Z,9.74
2022-09-28T09:55:46.441Z,9.85
2022-09-28T09:58:19.076Z,9.91
2022-09-28T10:00:50.812Z,9.95
2022-09-28T10:03:23.254Z,10.08
2022-09-28T10:05:57.564Z,10.05
2022-09-28T10:08:28.251Z,10.12
2022-09-28T10:11:05.606Z,10.16
2022-09-28T10:13:33.960Z,10.17
2022-09-28T10:16:02.327Z,10.18
2022-09-28T10:18:30.117Z,10.14
2022-09-28T10:20:57.681Z,10.33
2022-09-28T10:23:29.786Z,10.40
2022-09-28T10:26:03.241Z,10.48
2022-09-28T10:28:36.708Z,10.35
2022-09-28T10:31:35.034Z,10.46
2022-09-28T10:34:02.956Z,10.70
2022-09-28T10:36:37.927Z,10.83
2022-09-28T10:39:07.394Z,10.82
2022-09-28T10:41:34.925Z,10.79
2022-09-28T10:44:07.360Z,10.59
2022-09-28T10:46:36.880Z,10.42
2022-09-28T10:49:07.725Z,10.54
2022-09-28T10:51:47.239Z,10.63
2022-09-28T10:54:18.348Z,10.47
2022-09-28T10:56:46.888Z,10.48
2022-09-28T10:59:25.852Z,10.48
2022-09-28T11:01:56.698Z,10.62
2022-09-28T11:04:28.619Z,10.75
2022-09-28T11:09:31.434Z,11.11
2022-09-28T11:12:00.429Z,11.19
2022-09-28T11:14:38.350Z,11.27
2022-09-28T11:17:19.742Z,11.30
2022-09-28T11:19:47.353Z,10.99
2022-09-28T11:22:28.808Z,10.78
2022-09-28T11:25:21.087Z,10.72
2022-09-28T11:27:58.251Z,10.66
2022-09-28T11:30:29.332Z,10.67
2022-09-28T11:33:04.031Z,10.53
2022-09-28T11:35:45.069Z,10.47
2022-09-28T11:38:40.519Z,10.51
2022-09-28T11:41:22.070Z,10.62
2022-09-28T11:44:14.334Z,10.66
2022-09-28T11:46:50.733Z,10.68
2022-09-28T11:49:34.303Z,10.79
2022-09-28T11:52:07.739Z,10.88
2022-09-28T11:54:42.078Z,10.97
2022-09-28T11:57:19.137Z,11.17
2022-09-28T11:59:55.216Z,11.17
2022-09-28T12:02:26.876Z,11.27
2022-09-28T12:05:00.276Z,11.44
2022-09-28T12:07:33.922Z,11.51
2022-09-28T12:10:10.432Z,11.32
2022-09-28T12:12:47.614Z,11.58
2022-09-28T12:15:19.723Z,11.60
2022-09-28T12:17:51.502Z,11.39
2022-09-28T12:20:23.740Z,11.30
2022-09-28T12:23:02.848Z,11.24
2022-09-28T12:25:37.799Z,11.27
2022-09-28T12:28:14.670Z,11.28
2022-09-28T12:30:44.879Z,11.41
2022-09-28T12:33:15.252Z,11.43
2022-09-28T12:35:58.215Z,11.48
2022-09-28T12:39:08.426Z,11.50
2022-09-28T12:41:50.061Z,11.45
2022-09-28T12:44:41.496Z,11.35
2022-09-28T12:47:22.903Z,11.35
2022-09-28T12:53:07.867Z,11.62
2022-09-28T12:55:47.837Z,11.73
2022-09-28T12:58:29.604Z,11.66
2022-09-28T13:01:12.302Z,11.67
2022-09-28T13:03:57.971Z,11.77
2022-09-28T13:06:43.941Z,11.50
2022-09-28T13:09:19.903Z,11.62
2022-09-28T13:11:56.282Z,11.78
2022-09-28T13:14:46.655Z,11.74
2022-09-28T13:17:25.680Z,11.56
2022-09-28T13:19:59.369Z,11.60
2022-09-28T13:22:39.952Z,11.55
2022-09-28T13:25:16.601Z,11.56
2022-09-28T13:27:49.585Z,11.52
2022-09-28T13:30:18.001Z,11.61
2022-09-28T13:32:47.834Z,11.56
2022-09-28T13:35:19.321Z,11.52
2022-09-28T13:37:47.545Z,11.53
2022-09-28T13:40:16.227Z,11.62
2022-09-28T13:43:05.193Z,11.70
2022-09-28T13:45:53.917Z,11.63
2022-09-28T13:48:29.258Z,11.58
2022-09-28T13:51:22.006Z,11.53
2022-09-28T13:54:15.745Z,11.54
2022-09-28T13:56:55.095Z,11.56
2022-09-28T13:59:27.681Z,11.67
2022-09-28T14:02:04.276Z,11.66
2022-09-28T14:04:58.096Z,11.72
2022-09-28T14:10:19.189Z,11.75
2022-09-28T14:12:49.187Z,11.83
2022-09-28T14:15:46.881Z,11.75
2022-09-28T14:18:29.787Z,11.67
2022-09-28T14:21:13.289Z,11.69
2022-09-28T14:24:00.031Z,11.64
2022-09-28T14:27:09.351Z,11.60
2022-09-28T14:29:38.808Z,11.57
2022-09-28T14:32:22.491Z,11.56
2022-09-28T14:34:58.068Z,11.50
2022-09-28T14:37:48.846Z,11.51
2022-09-28T14:40:39.247Z,11.51
2022-09-28T14:43:24.670Z,11.57
2022-09-28T14:45:54.487Z,11.57
2022-09-28T14:48:23.442Z,11.61
2022-09-28T14:50:51.435Z,11.67
2022-09-28T14:53:25.565Z,11.73
2022-09-28T14:55:58.690Z,11.68
2022-09-28T14:58:28.809Z,11.61
2022-09-28T15:01:06.233Z,11.56
2022-09-28T15:03:36.414Z,11.57
2022-09-28T15:06:03.962Z,11.55
2022-09-28T15:08:40.836Z,11.60
2022-09-28T15:11:14.775Z,11.47
2022-09-28T15:13:43.528Z,11.47
2022-09-28T15:16:14.050Z,11.48
2022-09-28T15:19:04.076Z,11.49
2022-09-28T15:21:39.927Z,11.37
2022-09-28T15:24:30.586Z,11.31
2022-09-28T15:26:58.809Z,11.39
2022-09-28T15:29:28.118Z,11.31
2022-09-28T15:31:55.644Z,11.37
2022-09-28T15:34:46.320Z,11.23
2022-09-28T15:37:16.276Z,11.40
2022-09-28T15:39:48.359Z,11.43
2022-09-28T15:42:17.505Z,11.46
2022-09-28T15:45:02.911Z,11.54
2022-09-28T15:47:31.848Z,11.60
2022-09-28T15:50:02.116Z,11.59
2022-09-28T15:52:36.056Z,11.61
2022-09-28T15:55:16.990Z,11.71
2022-09-28T15:57:44.688Z,11.67
2022-09-28T16:00:26.431Z,11.56
2022-09-28T16:03:02.240Z,11.49
2022-09-28T16:05:35.771Z,11.52
2022-09-28T16:08:04.362Z,11.57
2022-09-28T16:10:35.870Z,11.36
2022-09-28T16:13:16.039Z,11.44
2022-09-28T16:15:43.851Z,11.39
2022-09-28T16:18:22.081Z,11.32
2022-09-28T16:20:51.950Z,11.43
2022-09-28T16:23:24.051Z,11.52
2022-09-28T16:25:56.558Z,11.48
2022-09-28T16:28:51.663Z,11.49
2022-09-28T16:31:29.547Z,11.50
2022-09-28T16:34:01.179Z,11.47
2022-09-28T16:36:39.511Z,11.50
2022-09-28T16:39:07.133Z,11.51
2022-09-28T16:41:36.163Z,11.40
2022-09-28T16:44:03.826Z,11.43
2022-09-28T16:46:37.198Z,11.48
2022-09-28T16:49:06.753Z,11.46
2022-09-28T16:51:34.624Z,11.48
2022-09-28T16:54:31.380Z,11.48
2022-09-28T16:57:00.826Z,11.46
2022-09-28T16:59:29.317Z,11.46
2022-09-28T17:01:57.549Z,11.44
2022-09-28T17:04:25.623Z,11.43
2022-09-28T17:06:54.388Z,11.41
2022-09-28T17:09:23.082Z,11.45
2022-09-28T17:11:56.244Z,11.41
2022-09-28T17:14:26.791Z,11.42
2022-09-28T17:17:13.904Z,11.43
2022-09-28T17:19:42.793Z,11.43
2022-09-28T17:22:10.625Z,11.44
2022-09-28T17:24:38.203Z,11.40
2022-09-28T17:27:06.870Z,11.39
2022-09-28T17:29:35.762Z,11.40
2022-09-28T17:32:04.954Z,11.41
2022-09-28T17:34:32.497Z,11.40
2022-09-28T17:37:00.048Z,11.41
2022-09-28T17:39:27.821Z,11.40
2022-09-28T17:41:55.352Z,11.40
2022-09-28T17:44:22.968Z,11.38
2022-09-28T17:46:52.246Z,11.29
2022-09-28T17:49:19.802Z,11.30
2022-09-28T17:51:47.518Z,11.28
2022-09-28T17:54:16.864Z,11.22
2022-09-28T17:56:44.498Z,11.27
2022-09-28T17:59:14.872Z,11.20
2022-09-28T18:01:42.641Z,11.25
2022-09-28T18:04:23.267Z,11.19
2022-09-28T18:06:55.386Z,11.23
2022-09-28T18:09:25.324Z,11.28
2022-09-28T18:12:00.205Z,11.23
2022-09-28T18:14:28.379Z,11.24
2022-09-28T18:16:55.955Z,11.26
2022-09-28T18:19:28.611Z,11.29
2022-09-28T18:21:59.424Z,11.25
2022-09-28T18:24:27.125Z,11.22
2022-09-28T18:26:54.679Z,11.22
2022-09-28T18:29:22.620Z,11.15
2022-09-28T18:31:50.258Z,11.18
2022-09-28T18:34:18.086Z,11.18
2022-09-28T18:36:47.104Z,11.16
2022-09-28T18:39:14.730Z,11.15
2022-09-28T18:41:43.055Z,11.13
2022-09-28T18:44:10.935Z,11.15
2022-09-28T18:46:38.568Z,11.12
2022-09-28T18:49:06.370Z,11.11
2022-09-28T18:51:33.968Z,11.12
2022-09-28T18:54:07.519Z,11.11
2022-09-28T18:56:37.931Z,11.12
2022-09-28T18:59:09.957Z,11.09
2022-09-28T19:01:41.673Z,11.07
2022-09-28T19:04:10.969Z,11.05
2022-09-28T19:06:40.614Z,11.07
2022-09-28T19:09:09.871Z,11.05
2022-09-28T19:11:37.645Z,11.02
2022-09-28T19:14:05.248Z,10.98
2022-09-28T19:16:34.010Z,10.96
2022-09-28T19:19:02.761Z,10.93
2022-09-28T19:21:31.292Z,10.93
2022-09-28T19:24:01.815Z,10.91
2022-09-28T19:26:31.628Z,10.88
2022-09-28T19:29:00.053Z,10.84
2022-09-28T19:31:27.956Z,10.87
2022-09-28T19:33:55.577Z,10.82
2022-09-28T19:36:25.177Z,10.80
2022-09-28T19:38:53.706Z,10.79
2022-09-28T19:41:40.751Z,10.78
2022-09-28T19:44:15.733Z,10.75
2022-09-28T19:46:43.993Z,10.73
2022-09-28T19:49:13.933Z,10.71
2022-09-28T19:52:01.687Z,10.69
2022-09-28T19:54:36.327Z,10.65
2022-09-28T19:57:07.482Z,10.61
2022-09-28T19:59:37.586Z,10.59
2022-09-28T20:02:05.761Z,10.53
2022-09-28T20:04:33.404Z,10.53
2022-09-28T20:07:01.693Z,10.52
2022-09-28T20:09:29.346Z,10.51
2022-09-28T20:11:57.193Z,10.52
2022-09-28T20:14:28.144Z,10.50
2022-09-28T20:17:00.900Z,10.45
2022-09-28T20:19:28.490Z,10.42
2022-09-28T20:21:59.386Z,10.40
2022-09-28T20:24:28.743Z,10.33
2022-09-28T20:26:56.507Z,10.23
2022-09-28T20:29:24.271Z,10.25
2022-09-28T20:31:52.149Z,10.25
2022-09-28T20:34:21.120Z,10.24
2022-09-28T20:36:48.697Z,10.21
2022-09-28T20:39:16.425Z,10.19
2022-09-28T20:41:45.975Z,10.16
2022-09-28T20:44:13.670Z,10.13
2022-09-28T20:46:43.661Z,10.10
2022-09-28T20:49:11.344Z,10.10
2022-09-28T20:51:40.248Z,10.04
2022-09-28T20:54:08.101Z,10.02
2022-09-28T20:56:38.232Z,10.01
2022-09-28T20:59:07.534Z,9.98
2022-09-28T21:01:35.180Z,9.96
2022-09-28T21:04:04.495Z,9.88
2022-09-28T21:06:33.994Z,9.88
2022-09-28T21:09:03.942Z,9.83
2022-09-28T21:11:32.100Z,9.82
2022-09-28T21:14:01.629Z,9.80
2022-09-28T21:16:31.426Z,9.79
2022-09-28T21:18:59.623Z,9.75
2022-09-28T21:21:28.082Z,9.70
2022-09-28T21:23:56.927Z,9.68
2022-09-28T21:26:27.871Z,9.66
2022-09-28T21:28:57.477Z,9.62
2022-09-28T21:31:29.173Z,9.56
2022-09-28T21:33:57.606Z,9.59
2022-09-28T21:36:25.363Z,9.58
2022-09-28T21:38:53.497Z,9.56
2022-09-28T21:41:21.115Z,9.53
2022-09-28T21:43:50.052Z,9.54
2022-09-28T21:46:18.535Z,9.51
2022-09-28T21:48:46.309Z,9.50
2022-09-28T21:51:15.364Z,9.48
2022-09-28T21:53:43.628Z,9.47
2022-09-28T21:56:13.310Z,9.46
2022-09-28T21:58:41.324Z,9.42
2022-09-28T22:01:13.077Z,9.46
2022-09-28T22:03:41.073Z,9.41
2022-09-28T22:06:09.182Z,9.35
2022-09-28T22:08:37.649Z,9.34
2022-09-28T22:11:07.358Z,9.30
2022-09-28T22:13:36.601Z,9.27
2022-09-28T22:16:04.455Z,9.26
2022-09-28T22:18:34.212Z,9.21
2022-09-28T22:21:02.789Z,9.23
2022-09-28T22:23:31.395Z,9.18
2022-09-28T22:26:00.496Z,9.17
2022-09-28T22:28:29.092Z,9.13
2022-09-28T22:30:57.071Z,9.11
2022-09-28T22:33:25.519Z,9.09
2022-09-28T22:35:55.015Z,9.11
2022-09-28T22:38:24.965Z,9.09
2022-09-28T22:40:54.541Z,9.05
2022-09-28T22:43:23.341Z,9.07
2022-09-28T22:45:51.091Z,9.03
2022-09-28T22:48:18.698Z,9.03
2022-09-28T22:50:50.322Z,9.00
2022-09-28T22:53:19.895Z,8.98
2022-09-28T22:55:47.477Z,8.98
2022-09-28T22:58:15.162Z,8.96
2022-09-28T23:00:43.163Z,8.82
2022-09-28T23:03:10.988Z,8.86
2022-09-28T23:05:38.658Z,8.91
2022-09-28T23:08:06.421Z,8.91
2022-09-28T23:10:35.374Z,8.93
2022-09-28T23:13:02.942Z,8.93
2022-09-28T23:15:30.550Z,8.92
2022-09-28T23:17:58.110Z,8.88
2022-09-28T23:20:25.967Z,8.88
2022-09-28T23:22:53.760Z,8.84
2022-09-28T23:25:21.375Z,8.84
2022-09-28T23:27:51.593Z,8.79
2022-09-28T23:30:21.048Z,8.82
2022-09-28T23:32:48.621Z,8.80
2022-09-28T23:35:16.346Z,8.77
2022-09-28T23:37:43.873Z,8.72
2022-09-28T23:40:11.715Z,8.71
2022-09-28T23:42:39.279Z,8.73
2022-09-28T23:45:09.606Z,8.70
2022-09-28T23:47:38.204Z,8.66
2022-09-28T23:50:06.830Z,8.67
2022-09-28T23:52:34.973Z,8.68
2022-09-28T23:55:02.602Z,8.64
2022-09-28T23:57:30.182Z,8.59
2022-09-28T23:59:58.604Z,8.60
